createdAt,value
2022-12-18T00:00:20.011Z,980.72
2022-12-18T00:01:24.113Z,980.71
2022-12-18T00:02:14.846Z,980.81
2022-12-18T00:03:38.681Z,980.71
2022-12-18T00:04:14.774Z,980.83
2022-12-18T00:05:13.615Z,980.88
2022-12-18T00:06:13.612Z,980.80
2022-12-18T00:07:13.617Z,980.89
2022-12-18T00:08:13.562Z,980.90
2022-12-18T00:09:13.535Z,980.92
2022-12-18T00:10:15.474Z,980.93
2022-12-18T00:11:13.563Z,980.96
2022-12-18T00:13:13.494Z,980.96
2022-12-18T00:14:13.456Z,980.95
2022-12-18T00:15:13.472Z,981.07
2022-12-18T00:16:13.464Z,980.98
2022-12-18T00:17:13.436Z,981.02
2022-12-18T00:18:16.081Z,980.98
2022-12-18T00:19:15.363Z,980.98
2022-12-18T00:20:13.342Z,980.96
2022-12-18T00:21:13.350Z,980.97
2022-12-18T00:22:13.355Z,980.98
2022-12-18T00:23:13.324Z,980.96
2022-12-18T00:24:13.283Z,980.91
2022-12-18T00:25:13.281Z,980.90
2022-12-18T00:26:13.255Z,980.95
2022-12-18T00:27:14.271Z,980.91
2022-12-18T00:28:13.248Z,980.83
2022-12-18T00:29:13.223Z,980.89
2022-12-18T00:30:13.175Z,980.87
2022-12-18T00:31:13.228Z,980.88
2022-12-18T00:32:13.171Z,980.88
2022-12-18T00:33:13.139Z,980.89
2022-12-18T00:34:13.129Z,980.97
2022-12-18T00:35:13.104Z,980.96
2022-12-18T00:36:13.071Z,980.96
2022-12-18T00:37:18.283Z,980.95
2022-12-18T00:38:15.038Z,980.98
2022-12-18T00:39:13.031Z,981.03
2022-12-18T00:40:13.014Z,980.93
2022-12-18T00:41:13.037Z,980.93
2022-12-18T00:42:13.075Z,980.90
2022-12-18T00:43:12.963Z,980.88
2022-12-18T00:44:12.947Z,980.85
2022-12-18T00:45:13.429Z,980.88
2022-12-18T00:46:13.964Z,980.80
2022-12-18T00:47:12.921Z,980.86
2022-12-18T00:48:12.906Z,980.85
2022-12-18T00:49:12.890Z,980.86
2022-12-18T00:50:12.841Z,980.87
2022-12-18T00:51:12.852Z,980.90
2022-12-18T00:52:12.852Z,980.94
2022-12-18T00:53:12.794Z,980.85
2022-12-18T00:54:12.772Z,980.91
2022-12-18T00:55:15.270Z,980.92
2022-12-18T00:56:12.737Z,980.91
2022-12-18T00:57:12.743Z,980.89
2022-12-18T00:58:12.700Z,980.93
2022-12-18T00:59:12.697Z,980.91
2022-12-18T01:00:12.706Z,980.89
2022-12-18T01:01:12.676Z,980.94
2022-12-18T01:02:12.902Z,980.98
2022-12-18T01:03:12.676Z,980.94
2022-12-18T01:04:12.599Z,981.02
2022-12-18T01:05:12.582Z,981.02
2022-12-18T01:06:12.588Z,981.06
2022-12-18T01:07:12.589Z,981.01
2022-12-18T01:08:12.739Z,981.06
2022-12-18T01:09:12.518Z,981.04
2022-12-18T01:10:12.511Z,980.98
2022-12-18T01:11:12.477Z,981.04
2022-12-18T01:12:12.493Z,981.06
2022-12-18T01:13:12.451Z,981.06
2022-12-18T01:14:12.434Z,981.15
2022-12-18T01:15:12.403Z,981.13
2022-12-18T01:16:12.470Z,981.11
2022-12-18T01:17:12.413Z,981.11
2022-12-18T01:18:12.356Z,981.09
2022-12-18T01:19:12.605Z,981.07
2022-12-18T01:20:12.325Z,981.04
2022-12-18T01:21:12.305Z,981.03
2022-12-18T01:22:12.344Z,981.04
2022-12-18T01:23:12.282Z,981.04
2022-12-18T01:24:12.349Z,980.99
2022-12-18T01:25:12.251Z,981.03
2022-12-18T01:26:12.217Z,981.11
2022-12-18T01:27:12.239Z,981.11
2022-12-18T01:28:12.191Z,981.11
2022-12-18T01:29:12.175Z,981.11
2022-12-18T01:30:12.156Z,981.12
2022-12-18T01:31:12.157Z,981.18
2022-12-18T01:32:12.194Z,981.17
2022-12-18T01:33:12.114Z,981.12
2022-12-18T01:34:12.120Z,981.22
2022-12-18T01:35:12.081Z,981.17
2022-12-18T01:36:12.043Z,981.15
2022-12-18T01:37:12.077Z,981.22
2022-12-18T01:38:12.028Z,981.31
2022-12-18T01:39:12.020Z,981.32
2022-12-18T01:40:11.984Z,981.25
2022-12-18T01:41:12.170Z,981.26
2022-12-18T01:42:11.968Z,981.21
2022-12-18T01:43:11.970Z,981.19
2022-12-18T01:44:11.943Z,981.20
2022-12-18T01:45:11.995Z,981.20
2022-12-18T01:46:11.966Z,981.24
2022-12-18T01:47:11.898Z,981.18
2022-12-18T01:48:11.844Z,981.20
2022-12-18T01:49:11.818Z,981.18
2022-12-18T01:50:11.812Z,981.18
2022-12-18T01:51:11.838Z,981.20
2022-12-18T01:52:12.814Z,981.21
2022-12-18T01:53:11.751Z,981.15
2022-12-18T01:54:11.803Z,981.14
2022-12-18T01:55:11.725Z,981.10
2022-12-18T01:56:11.730Z,981.16
2022-12-18T01:57:11.719Z,981.10
2022-12-18T01:58:11.663Z,981.07
2022-12-18T01:59:11.721Z,981.09
2022-12-18T02:00:11.632Z,981.10
2022-12-18T02:01:11.665Z,981.07
2022-12-18T02:02:11.789Z,981.08
2022-12-18T02:03:11.670Z,981.11
2022-12-18T02:04:11.555Z,981.12
2022-12-18T02:05:11.561Z,981.10
2022-12-18T02:06:11.615Z,981.05
2022-12-18T02:07:11.555Z,981.09
2022-12-18T02:08:11.500Z,981.08
2022-12-18T02:09:11.485Z,981.12
2022-12-18T02:10:11.469Z,981.16
2022-12-18T02:11:11.444Z,981.10
2022-12-18T02:12:11.461Z,981.12
2022-12-18T02:13:11.479Z,981.21
2022-12-18T02:14:11.409Z,981.10
2022-12-18T02:15:11.386Z,981.07
2022-12-18T02:16:11.415Z,981.13
2022-12-18T02:17:11.386Z,981.08
2022-12-18T02:18:11.339Z,981.01
2022-12-18T02:19:11.315Z,981.05
2022-12-18T02:20:11.301Z,981.07
2022-12-18T02:21:11.277Z,981.02
2022-12-18T02:22:11.313Z,981.06
2022-12-18T02:23:11.250Z,980.99
2022-12-18T02:24:11.225Z,981.04
2022-12-18T02:25:11.213Z,981.04
2022-12-18T02:26:11.193Z,980.98
2022-12-18T02:27:11.213Z,981.06
2022-12-18T02:28:11.151Z,980.97
2022-12-18T02:29:12.225Z,981.11
2022-12-18T02:30:11.129Z,981.07
2022-12-18T02:31:11.164Z,981.08
2022-12-18T02:32:11.128Z,981.01
2022-12-18T02:33:11.086Z,981.06
2022-12-18T02:34:11.069Z,981.03
2022-12-18T02:35:11.062Z,980.95
2022-12-18T02:36:11.031Z,980.99
2022-12-18T02:37:11.060Z,981.03
2022-12-18T02:38:11.016Z,980.96
2022-12-18T02:39:11.032Z,981.03
2022-12-18T02:40:11.035Z,980.93
2022-12-18T02:41:10.962Z,980.94
2022-12-18T02:42:10.971Z,981.00
2022-12-18T02:43:10.918Z,980.94
2022-12-18T02:44:10.897Z,980.96
2022-12-18T02:45:10.946Z,980.95
2022-12-18T02:46:10.897Z,980.98
2022-12-18T02:47:10.890Z,980.92
2022-12-18T02:48:10.836Z,980.94
2022-12-18T02:49:10.816Z,980.95
2022-12-18T02:50:10.809Z,980.90
2022-12-18T02:51:10.794Z,980.93
2022-12-18T02:52:10.802Z,980.97
2022-12-18T02:53:10.759Z,980.97
2022-12-18T02:54:10.734Z,980.96
2022-12-18T02:55:10.729Z,981.03
2022-12-18T02:56:10.706Z,981.03
2022-12-18T02:57:10.695Z,981.03
2022-12-18T02:58:10.703Z,981.01
2022-12-18T02:59:10.651Z,981.05
2022-12-18T03:00:10.631Z,981.05
2022-12-18T03:01:10.740Z,980.99
2022-12-18T03:02:10.768Z,980.98
2022-12-18T03:03:10.694Z,981.02
2022-12-18T03:04:10.583Z,981.04
2022-12-18T03:05:10.556Z,981.01
2022-12-18T03:06:10.544Z,980.96
2022-12-18T03:07:10.516Z,981.00
2022-12-18T03:08:10.527Z,980.91
2022-12-18T03:09:10.587Z,980.98
2022-12-18T03:10:10.475Z,980.92
2022-12-18T03:11:10.443Z,980.92
2022-12-18T03:12:10.430Z,980.94
2022-12-18T03:13:10.450Z,980.89
2022-12-18T03:14:10.403Z,980.83
2022-12-18T03:15:15.998Z,980.80
2022-12-18T03:16:12.456Z,980.77
2022-12-18T03:17:10.366Z,980.83
2022-12-18T03:18:10.370Z,980.75
2022-12-18T03:19:10.338Z,980.79
2022-12-18T03:20:10.317Z,980.75
2022-12-18T03:21:10.291Z,980.81
2022-12-18T03:22:10.267Z,980.81
2022-12-18T03:23:10.317Z,980.83
2022-12-18T03:24:10.237Z,980.80
2022-12-18T03:25:10.220Z,980.87
2022-12-18T03:26:10.215Z,980.78
2022-12-18T03:27:10.183Z,980.90
2022-12-18T03:28:10.196Z,980.82
2022-12-18T03:29:10.178Z,980.84
2022-12-18T03:30:10.143Z,980.91
2022-12-18T03:31:10.145Z,980.86
2022-12-18T03:32:10.179Z,980.83
2022-12-18T03:33:10.115Z,980.83
2022-12-18T03:34:10.068Z,980.82
2022-12-18T03:35:10.053Z,980.87
2022-12-18T03:36:10.044Z,980.90
2022-12-18T03:37:10.035Z,980.91
2022-12-18T03:38:10.042Z,980.91
2022-12-18T03:39:10.009Z,980.83
2022-12-18T03:40:09.970Z,980.86
2022-12-18T03:41:09.959Z,980.89
2022-12-18T03:42:09.930Z,980.92
2022-12-18T03:43:09.954Z,980.90
2022-12-18T03:44:09.912Z,980.85
2022-12-18T03:45:09.887Z,980.90
2022-12-18T03:46:09.962Z,980.69
2022-12-18T03:47:09.865Z,980.75
2022-12-18T03:48:09.940Z,980.78
2022-12-18T03:49:09.820Z,980.78
2022-12-18T03:50:12.816Z,980.82
2022-12-18T03:51:10.803Z,980.77
2022-12-18T03:52:09.781Z,980.77
2022-12-18T03:53:09.794Z,980.71
2022-12-18T03:54:09.744Z,980.75
2022-12-18T03:55:09.734Z,980.82
2022-12-18T03:56:09.712Z,980.90
2022-12-18T03:57:09.689Z,980.83
2022-12-18T03:58:09.712Z,980.82
2022-12-18T03:59:09.668Z,980.78
2022-12-18T04:00:09.648Z,980.86
2022-12-18T04:01:09.696Z,980.82
2022-12-18T04:02:09.705Z,980.78
2022-12-18T04:03:09.664Z,980.76
2022-12-18T04:04:09.789Z,980.79
2022-12-18T04:05:09.568Z,980.82
2022-12-18T04:06:09.541Z,980.85
2022-12-18T04:07:09.527Z,980.80
2022-12-18T04:08:09.537Z,980.84
2022-12-18T04:09:09.491Z,980.80
2022-12-18T04:10:09.474Z,980.82
2022-12-18T04:11:09.459Z,980.90
2022-12-18T04:12:09.456Z,980.91
2022-12-18T04:13:09.468Z,980.85
2022-12-18T04:14:14.434Z,980.78
2022-12-18T04:15:11.393Z,980.89
2022-12-18T04:16:09.458Z,980.91
2022-12-18T04:17:09.357Z,980.89
2022-12-18T04:18:09.469Z,980.86
2022-12-18T04:19:09.366Z,980.91
2022-12-18T04:20:09.391Z,980.88
2022-12-18T04:21:09.319Z,980.87
2022-12-18T04:22:09.284Z,980.92
2022-12-18T04:23:09.297Z,980.92
2022-12-18T04:24:09.251Z,980.93
2022-12-18T04:25:09.238Z,980.96
2022-12-18T04:26:09.215Z,981.02
2022-12-18T04:27:09.211Z,980.99
2022-12-18T04:28:09.213Z,980.91
2022-12-18T04:29:09.166Z,980.97
2022-12-18T04:30:09.149Z,981.00
2022-12-18T04:31:09.194Z,980.88
2022-12-18T04:32:09.115Z,980.94
2022-12-18T04:33:09.221Z,980.92
2022-12-18T04:34:09.080Z,980.93
2022-12-18T04:35:09.067Z,980.89
2022-12-18T04:36:09.138Z,980.91
2022-12-18T04:37:09.042Z,980.93
2022-12-18T04:38:09.066Z,980.93
2022-12-18T04:39:09.004Z,980.98
2022-12-18T04:40:08.994Z,980.91
2022-12-18T04:41:08.968Z,980.88
2022-12-18T04:42:08.949Z,980.91
2022-12-18T04:43:08.996Z,980.91
2022-12-18T04:44:08.927Z,980.92
2022-12-18T04:45:08.920Z,980.91
2022-12-18T04:46:08.976Z,980.89
2022-12-18T04:47:08.881Z,981.00
2022-12-18T04:48:08.892Z,980.98
2022-12-18T04:49:08.907Z,981.01
2022-12-18T04:50:08.832Z,981.02
2022-12-18T04:51:08.811Z,980.99
2022-12-18T04:52:08.947Z,981.08
2022-12-18T04:53:08.823Z,981.04
2022-12-18T04:54:09.763Z,981.10
2022-12-18T04:55:08.739Z,981.15
2022-12-18T04:56:08.738Z,981.09
2022-12-18T04:57:08.748Z,981.15
2022-12-18T04:58:08.719Z,981.13
2022-12-18T04:59:08.681Z,981.07
2022-12-18T05:00:08.665Z,981.13
2022-12-18T05:01:08.657Z,981.16
2022-12-18T05:02:08.708Z,981.18
2022-12-18T05:03:08.636Z,981.21
2022-12-18T05:04:08.660Z,981.24
2022-12-18T05:05:08.571Z,981.31
2022-12-18T05:06:08.560Z,981.22
2022-12-18T05:07:08.530Z,981.18
2022-12-18T05:08:09.625Z,981.18
2022-12-18T05:09:09.499Z,981.19
2022-12-18T05:10:08.515Z,981.15
2022-12-18T05:11:08.491Z,981.09
2022-12-18T05:12:08.457Z,981.12
2022-12-18T05:13:08.477Z,981.14
2022-12-18T05:14:08.480Z,981.14
2022-12-18T05:15:08.418Z,981.14
2022-12-18T05:16:08.463Z,981.15
2022-12-18T05:17:08.404Z,981.19
2022-12-18T05:18:08.387Z,981.15
2022-12-18T05:19:08.347Z,981.11
2022-12-18T05:20:08.352Z,981.12
2022-12-18T05:21:08.313Z,981.19
2022-12-18T05:22:08.319Z,981.15
2022-12-18T05:23:08.319Z,981.18
2022-12-18T05:24:08.336Z,981.17
2022-12-18T05:25:08.255Z,981.15
2022-12-18T05:26:08.234Z,981.20
2022-12-18T05:27:08.208Z,981.18
2022-12-18T05:28:08.214Z,981.17
2022-12-18T05:29:08.171Z,981.15
2022-12-18T05:30:08.191Z,981.12
2022-12-18T05:31:08.188Z,981.18
2022-12-18T05:32:08.121Z,981.19
2022-12-18T05:33:08.136Z,981.16
2022-12-18T05:34:08.093Z,981.19
2022-12-18T05:35:08.067Z,981.22
2022-12-18T05:36:08.059Z,981.19
2022-12-18T05:37:08.047Z,981.22
2022-12-18T05:38:08.057Z,981.13
2022-12-18T05:39:08.009Z,981.16
2022-12-18T05:40:08.056Z,981.12
2022-12-18T05:41:07.970Z,981.12
2022-12-18T05:42:07.953Z,981.07
2022-12-18T05:43:07.980Z,981.05
2022-12-18T05:44:07.948Z,981.07
2022-12-18T05:45:07.904Z,980.99
2022-12-18T05:46:07.924Z,980.93
2022-12-18T05:47:07.865Z,980.99
2022-12-18T05:48:07.883Z,980.94
2022-12-18T05:49:07.934Z,980.98
2022-12-18T05:50:07.828Z,981.03
2022-12-18T05:51:07.812Z,981.01
2022-12-18T05:52:07.801Z,980.99
2022-12-18T05:53:07.809Z,981.02
2022-12-18T05:54:07.758Z,981.02
2022-12-18T05:55:07.738Z,981.01
2022-12-18T05:56:07.792Z,981.03
2022-12-18T05:57:07.708Z,981.03
2022-12-18T05:58:07.694Z,980.96
2022-12-18T05:59:07.713Z,980.99
2022-12-18T06:00:07.661Z,981.03
2022-12-18T06:01:07.640Z,981.05
2022-12-18T06:02:07.706Z,981.14
2022-12-18T06:03:07.644Z,981.16
2022-12-18T06:04:07.641Z,981.10
2022-12-18T06:05:07.574Z,981.04
2022-12-18T06:06:07.551Z,981.07
2022-12-18T06:07:07.541Z,981.02
2022-12-18T06:08:07.519Z,981.08
2022-12-18T06:09:07.541Z,981.08
2022-12-18T06:10:07.485Z,981.16
2022-12-18T06:11:07.465Z,981.01
2022-12-18T06:12:07.521Z,981.09
2022-12-18T06:13:07.435Z,981.05
2022-12-18T06:14:07.489Z,981.05
2022-12-18T06:15:07.402Z,981.05
2022-12-18T06:16:07.471Z,980.98
2022-12-18T06:17:07.372Z,981.05
2022-12-18T06:18:07.359Z,981.04
2022-12-18T06:19:07.374Z,981.05
2022-12-18T06:20:07.327Z,981.05
2022-12-18T06:21:07.311Z,981.04
2022-12-18T06:22:07.294Z,981.14
2022-12-18T06:23:07.270Z,981.14
2022-12-18T06:24:07.296Z,981.17
2022-12-18T06:25:07.231Z,981.17
2022-12-18T06:26:08.228Z,981.16
2022-12-18T06:27:07.208Z,981.11
2022-12-18T06:28:07.256Z,981.13
2022-12-18T06:29:07.199Z,981.18
2022-12-18T06:30:07.163Z,981.07
2022-12-18T06:31:07.230Z,981.14
2022-12-18T06:32:07.121Z,981.14
2022-12-18T06:33:07.109Z,981.11
2022-12-18T06:34:07.121Z,981.15
2022-12-18T06:35:07.082Z,981.16
2022-12-18T06:36:07.050Z,981.14
2022-12-18T06:37:07.035Z,981.16
2022-12-18T06:38:07.027Z,981.15
2022-12-18T06:39:07.049Z,981.16
2022-12-18T06:40:07.005Z,981.22
2022-12-18T06:41:06.969Z,981.24
2022-12-18T06:42:06.962Z,981.23
2022-12-18T06:43:06.939Z,981.18
2022-12-18T06:44:07.026Z,981.24
2022-12-18T06:45:06.910Z,981.27
2022-12-18T06:46:06.943Z,981.24
2022-12-18T06:47:06.875Z,981.26
2022-12-18T06:48:06.856Z,981.29
2022-12-18T06:49:06.876Z,981.29
2022-12-18T06:50:06.817Z,981.26
2022-12-18T06:51:06.822Z,981.24
2022-12-18T06:52:06.793Z,981.25
2022-12-18T06:53:06.780Z,981.33
2022-12-18T06:54:06.790Z,981.29
2022-12-18T06:55:06.745Z,981.29
2022-12-18T06:56:38.590Z,981.28
2022-12-18T06:57:06.706Z,981.27
2022-12-18T06:58:06.707Z,981.30
2022-12-18T06:59:06.726Z,981.28
2022-12-18T07:00:06.743Z,981.20
2022-12-18T07:01:06.709Z,981.29
2022-12-18T07:02:06.756Z,981.27
2022-12-18T07:03:06.633Z,981.28
2022-12-18T07:04:06.620Z,981.31
2022-12-18T07:05:10.773Z,981.27
2022-12-18T07:06:07.557Z,981.23
2022-12-18T07:07:06.538Z,981.28
2022-12-18T07:08:06.522Z,981.34
2022-12-18T07:09:06.542Z,981.41
2022-12-18T07:10:06.543Z,981.32
2022-12-18T07:11:06.492Z,981.37
2022-12-18T07:12:06.462Z,981.44
2022-12-18T07:13:06.449Z,981.41
2022-12-18T07:14:06.458Z,981.48
2022-12-18T07:15:06.408Z,981.47
2022-12-18T07:16:10.921Z,981.48
2022-12-18T07:17:08.394Z,981.41
2022-12-18T07:18:06.358Z,981.44
2022-12-18T07:19:06.374Z,981.49
2022-12-18T07:20:06.325Z,981.48
2022-12-18T07:21:06.309Z,981.52
2022-12-18T07:22:06.306Z,981.53
2022-12-18T07:23:06.276Z,981.58
2022-12-18T07:24:06.294Z,981.59
2022-12-18T07:25:06.243Z,981.53
2022-12-18T07:26:06.234Z,981.63
2022-12-18T07:27:06.213Z,981.57
2022-12-18T07:28:06.195Z,981.60
2022-12-18T07:29:06.208Z,981.62
2022-12-18T07:30:06.167Z,981.67
2022-12-18T07:31:06.163Z,981.71
2022-12-18T07:32:07.259Z,981.59
2022-12-18T07:33:06.112Z,981.65
2022-12-18T07:34:06.210Z,981.70
2022-12-18T07:35:06.095Z,981.66
2022-12-18T07:36:06.053Z,981.63
2022-12-18T07:37:06.075Z,981.60
2022-12-18T07:38:06.028Z,981.60
2022-12-18T07:39:06.177Z,981.55
2022-12-18T07:40:05.999Z,981.54
2022-12-18T07:41:06.737Z,981.60
2022-12-18T07:42:05.965Z,981.56
2022-12-18T07:43:05.966Z,981.51
2022-12-18T07:44:05.970Z,981.50
2022-12-18T07:45:05.927Z,981.50
2022-12-18T07:46:05.941Z,981.47
2022-12-18T07:47:10.531Z,981.47
2022-12-18T07:48:07.931Z,981.49
2022-12-18T07:49:05.883Z,981.43
2022-12-18T07:50:05.843Z,981.42
2022-12-18T07:51:05.798Z,981.42
2022-12-18T07:52:05.792Z,981.43
2022-12-18T07:53:05.820Z,981.44
2022-12-18T07:54:05.818Z,981.41
2022-12-18T07:55:05.732Z,981.34
2022-12-18T07:56:26.406Z,981.39
2022-12-18T07:57:21.316Z,981.31
2022-12-18T07:58:07.692Z,981.24
2022-12-18T07:59:05.701Z,981.21
2022-12-18T08:00:05.681Z,981.22
2022-12-18T08:01:05.661Z,981.17
2022-12-18T08:02:05.755Z,981.08
2022-12-18T08:03:05.610Z,981.15
2022-12-18T08:04:05.743Z,981.05
2022-12-18T08:05:05.559Z,981.11
2022-12-18T08:06:05.546Z,981.08
2022-12-18T08:07:05.550Z,981.11
2022-12-18T08:08:05.514Z,981.14
2022-12-18T08:09:05.514Z,981.18
2022-12-18T08:10:05.513Z,981.14
2022-12-18T08:11:05.471Z,981.20
2022-12-18T08:12:05.450Z,981.21
2022-12-18T08:13:05.486Z,981.22
2022-12-18T08:14:05.413Z,981.11
2022-12-18T08:15:05.447Z,981.08
2022-12-18T08:16:05.375Z,981.08
2022-12-18T08:17:05.454Z,981.08
2022-12-18T08:18:08.062Z,981.00
2022-12-18T08:19:05.332Z,981.05
2022-12-18T08:20:05.411Z,980.97
2022-12-18T08:21:05.320Z,981.11
2022-12-18T08:22:05.281Z,981.07
2022-12-18T08:23:05.254Z,980.99
2022-12-18T08:24:05.255Z,981.05
2022-12-18T08:25:05.260Z,981.03
2022-12-18T08:26:05.219Z,980.98
2022-12-18T08:27:34.624Z,980.98
2022-12-18T08:28:07.176Z,980.89
2022-12-18T08:29:05.179Z,980.83
2022-12-18T08:30:05.212Z,980.80
2022-12-18T08:31:05.239Z,980.87
2022-12-18T08:32:05.161Z,980.78
2022-12-18T08:33:05.119Z,980.78
2022-12-18T08:34:05.108Z,980.82
2022-12-18T08:35:05.090Z,980.73
2022-12-18T08:36:06.131Z,980.80
2022-12-18T08:37:05.034Z,980.78
2022-12-18T08:38:04.998Z,980.83
2022-12-18T08:39:05.992Z,980.91
2022-12-18T08:40:05.006Z,980.85
2022-12-18T08:41:04.959Z,980.79
2022-12-18T08:42:09.854Z,980.87
2022-12-18T08:43:06.930Z,980.86
2022-12-18T08:44:04.913Z,980.86
2022-12-18T08:45:04.936Z,980.81
2022-12-18T08:46:04.912Z,980.74
2022-12-18T08:47:04.861Z,980.63
2022-12-18T08:48:04.856Z,980.68
2022-12-18T08:49:04.824Z,980.62
2022-12-18T08:50:04.922Z,980.67
2022-12-18T08:51:04.797Z,980.60
2022-12-18T08:52:04.849Z,980.56
2022-12-18T08:53:04.759Z,980.57
2022-12-18T08:54:04.738Z,980.50
2022-12-18T08:55:04.752Z,980.51
2022-12-18T08:56:04.712Z,980.46
2022-12-18T08:57:04.715Z,980.47
2022-12-18T08:58:04.683Z,980.48
2022-12-18T08:59:04.657Z,980.56
2022-12-18T09:00:04.685Z,980.52
2022-12-18T09:01:04.685Z,980.46
2022-12-18T09:02:04.785Z,980.46
2022-12-18T09:03:04.647Z,980.46
2022-12-18T09:04:04.576Z,980.50
2022-12-18T09:05:04.602Z,980.40
2022-12-18T09:06:04.540Z,980.35
2022-12-18T09:07:04.534Z,980.42
2022-12-18T09:08:04.576Z,980.37
2022-12-18T09:09:04.513Z,980.36
2022-12-18T09:10:04.503Z,980.42
2022-12-18T09:11:04.460Z,980.41
2022-12-18T09:12:04.455Z,980.38
2022-12-18T09:13:04.430Z,980.47
2022-12-18T09:14:04.424Z,980.53
2022-12-18T09:15:04.539Z,980.47
2022-12-18T09:16:04.396Z,980.41
2022-12-18T09:17:04.451Z,980.48
2022-12-18T09:18:04.347Z,980.36
2022-12-18T09:19:04.328Z,980.43
2022-12-18T09:20:08.410Z,980.44
2022-12-18T09:21:04.356Z,980.46
2022-12-18T09:22:04.273Z,980.45
2022-12-18T09:23:04.272Z,980.36
2022-12-18T09:24:04.316Z,980.34
2022-12-18T09:25:04.361Z,980.30
2022-12-18T09:26:04.213Z,980.40
2022-12-18T09:27:04.211Z,980.35
2022-12-18T09:28:04.175Z,980.37
2022-12-18T09:29:04.171Z,980.34
2022-12-18T09:30:04.406Z,980.28
2022-12-18T09:31:04.154Z,980.27
2022-12-18T09:32:04.106Z,980.18
2022-12-18T09:33:04.089Z,980.19
2022-12-18T09:34:04.078Z,980.23
2022-12-18T09:35:04.104Z,980.22
2022-12-18T09:36:04.051Z,980.22
2022-12-18T09:37:04.026Z,980.27
2022-12-18T09:38:04.020Z,980.26
2022-12-18T09:39:08.163Z,980.26
2022-12-18T09:40:05.089Z,980.31
2022-12-18T09:41:03.962Z,980.30
2022-12-18T09:42:04.973Z,980.37
2022-12-18T09:43:03.928Z,980.40
2022-12-18T09:44:03.951Z,980.39
2022-12-18T09:45:04.055Z,980.38
2022-12-18T09:46:03.993Z,980.42
2022-12-18T09:47:03.853Z,980.54
2022-12-18T09:48:03.841Z,980.41
2022-12-18T09:49:03.820Z,980.37
2022-12-18T09:50:03.851Z,980.46
2022-12-18T09:51:03.809Z,980.42
2022-12-18T09:52:03.776Z,980.51
2022-12-18T09:53:03.772Z,980.63
2022-12-18T09:54:03.732Z,980.55
2022-12-18T09:55:03.757Z,980.53
2022-12-18T09:56:03.772Z,980.52
2022-12-18T09:57:03.695Z,980.57
2022-12-18T09:58:03.670Z,980.60
2022-12-18T09:59:03.653Z,980.52
2022-12-18T10:00:03.677Z,980.47
2022-12-18T10:01:03.621Z,980.48
2022-12-18T10:02:03.750Z,980.49
2022-12-18T10:03:03.781Z,980.29
2022-12-18T10:04:03.737Z,980.36
2022-12-18T10:05:03.683Z,980.33
2022-12-18T10:06:03.631Z,980.34
2022-12-18T10:07:08.931Z,980.35
2022-12-18T10:08:05.615Z,980.39
2022-12-18T10:09:03.580Z,980.45
2022-12-18T10:10:03.585Z,980.32
2022-12-18T10:11:03.584Z,980.39
2022-12-18T10:12:03.606Z,980.27
2022-12-18T10:13:04.852Z,980.35
2022-12-18T10:14:04.521Z,980.31
2022-12-18T10:15:03.480Z,980.23
2022-12-18T10:16:03.458Z,980.25
2022-12-18T10:17:03.439Z,980.21
2022-12-18T10:18:03.425Z,980.22
2022-12-18T10:19:03.415Z,980.26
2022-12-18T10:20:03.373Z,980.33
2022-12-18T10:21:03.378Z,980.44
2022-12-18T10:22:03.378Z,980.39
2022-12-18T10:23:03.370Z,980.33
2022-12-18T10:24:03.350Z,980.33
2022-12-18T10:25:03.361Z,980.27
2022-12-18T10:26:03.295Z,980.25
2022-12-18T10:27:03.306Z,980.35
2022-12-18T10:28:08.765Z,980.28
2022-12-18T10:29:05.845Z,980.32
2022-12-18T10:30:04.236Z,980.39
2022-12-18T10:31:03.299Z,980.42
2022-12-18T10:32:03.312Z,980.45
2022-12-18T10:33:03.204Z,980.47
2022-12-18T10:34:03.171Z,980.58
2022-12-18T10:35:03.312Z,980.48
2022-12-18T10:36:03.162Z,980.46
2022-12-18T10:37:03.094Z,980.40
2022-12-18T10:38:03.148Z,980.40
2022-12-18T10:39:03.134Z,980.34
2022-12-18T10:40:03.115Z,980.39
2022-12-18T10:41:03.075Z,980.34
2022-12-18T10:42:03.079Z,980.39
2022-12-18T10:43:02.991Z,980.33
2022-12-18T10:44:03.051Z,980.22
2022-12-18T10:45:02.986Z,980.27
2022-12-18T10:46:03.035Z,980.14
2022-12-18T10:47:06.160Z,980.15
2022-12-18T10:48:03.960Z,980.14
2022-12-18T10:49:02.942Z,980.17
2022-12-18T10:50:02.928Z,980.03
2022-12-18T10:51:12.896Z,980.10
2022-12-18T10:52:04.940Z,980.01
2022-12-18T10:53:02.931Z,980.02
2022-12-18T10:54:02.890Z,980.07
2022-12-18T10:55:02.803Z,980.03
2022-12-18T10:56:02.833Z,980.00
2022-12-18T10:57:02.788Z,980.06
2022-12-18T10:58:02.791Z,980.02
2022-12-18T10:59:02.755Z,979.96
2022-12-18T11:00:02.740Z,980.04
2022-12-18T11:01:08.573Z,980.02
2022-12-18T11:02:03.942Z,980.05
2022-12-18T11:03:02.769Z,979.93
2022-12-18T11:04:03.005Z,980.03
2022-12-18T11:05:02.663Z,979.93
2022-12-18T11:06:02.667Z,979.96
2022-12-18T11:07:02.671Z,979.97
2022-12-18T11:08:02.630Z,979.97
2022-12-18T11:09:05.360Z,979.97
2022-12-18T11:10:03.541Z,979.99
2022-12-18T11:11:02.555Z,979.99
2022-12-18T11:12:02.483Z,979.90
2022-12-18T11:13:02.499Z,979.84
2022-12-18T11:14:02.502Z,979.88
2022-12-18T11:15:02.440Z,979.84
2022-12-18T11:16:02.521Z,979.88
2022-12-18T11:17:24.803Z,979.87
2022-12-18T11:18:04.513Z,979.92
2022-12-18T11:19:02.452Z,979.84
2022-12-18T11:20:02.386Z,979.88
2022-12-18T11:21:02.427Z,979.84
2022-12-18T11:22:02.313Z,979.93
2022-12-18T11:23:02.248Z,979.89
2022-12-18T11:24:02.253Z,979.84
2022-12-18T11:25:32.168Z,979.92
2022-12-18T11:26:04.228Z,979.81
2022-12-18T11:27:02.186Z,979.86
2022-12-18T11:28:02.170Z,979.87
2022-12-18T11:29:02.142Z,979.83
2022-12-18T11:30:02.151Z,979.90
2022-12-18T11:31:02.174Z,979.97
2022-12-18T11:32:02.099Z,979.92
2022-12-18T11:33:02.088Z,979.92
2022-12-18T11:35:04.120Z,979.97
2022-12-18T11:36:02.068Z,980.17
2022-12-18T11:37:02.032Z,979.97
2022-12-18T11:38:02.005Z,980.03
2022-12-18T11:39:01.986Z,980.03
2022-12-18T11:40:01.971Z,980.03
2022-12-18T11:41:01.970Z,979.94
2022-12-18T11:42:01.921Z,979.95
2022-12-18T11:43:01.920Z,979.88
2022-12-18T11:44:01.887Z,979.86
2022-12-18T11:45:01.889Z,979.80
2022-12-18T11:46:01.994Z,979.73
2022-12-18T11:47:01.880Z,979.72
2022-12-18T11:48:01.829Z,979.65
2022-12-18T11:49:01.808Z,979.60
2022-12-18T11:50:01.802Z,979.49
2022-12-18T11:51:01.880Z,979.54
2022-12-18T11:52:01.753Z,979.57
2022-12-18T11:53:05.956Z,979.44
2022-12-18T11:54:02.735Z,979.39
2022-12-18T11:55:01.702Z,979.38
2022-12-18T11:56:01.716Z,979.44
2022-12-18T11:57:01.666Z,979.29
2022-12-18T11:58:01.661Z,979.34
2022-12-18T11:59:01.636Z,979.41
2022-12-18T12:00:01.646Z,979.28
2022-12-18T12:01:01.658Z,979.32
2022-12-18T12:02:01.744Z,979.30
2022-12-18T12:03:01.653Z,979.23
2022-12-18T12:04:01.563Z,979.30
2022-12-18T12:05:01.533Z,979.25
2022-12-18T12:06:01.553Z,979.15
2022-12-18T12:07:03.476Z,979.27
2022-12-18T12:08:02.546Z,979.24
2022-12-18T12:09:01.471Z,979.26
2022-12-18T12:10:01.463Z,979.39
2022-12-18T12:11:01.422Z,979.39
2022-12-18T12:12:01.474Z,979.30
2022-12-18T12:13:01.411Z,979.48
2022-12-18T12:14:01.375Z,979.42
2022-12-18T12:15:01.376Z,979.40
2022-12-18T12:16:01.372Z,979.34
2022-12-18T12:17:01.427Z,979.44
2022-12-18T12:18:01.308Z,979.42
2022-12-18T12:19:01.300Z,979.46
2022-12-18T12:20:01.264Z,979.50
2022-12-18T12:21:01.262Z,979.36
2022-12-18T12:22:01.271Z,979.29
2022-12-18T12:23:01.283Z,979.37
2022-12-18T12:24:01.200Z,979.28
2022-12-18T12:25:01.186Z,979.23
2022-12-18T12:26:01.161Z,979.14
2022-12-18T12:27:01.211Z,979.26
2022-12-18T12:28:01.126Z,979.32
2022-12-18T12:29:01.114Z,979.22
2022-12-18T12:30:01.129Z,979.18